TQPF METAR and TAF | Updated Today

TQPF METAR

Clayton J Lloyd International Airport

Observation time: 10:20 hr. ago

TQPF 052300Z 08009KT 9999 FEW020 27/22 Q1018

Need help? Read our tutorial on how to read METARs or read the parsed version below.

Clayton J Lloyd International Airport (TQPF) METAR

  • Weather conditions on Sun, 05 Dec 2021 23:00:00 +0000 (10:20 hr. ago):
  • Present conditions: Dry
  • Clouds: A few at 610 meters
  • Visibility: Greater than 10 km
  • Wind: 80 degrees at 9 knots
  • Temperature: 27 celsius
  • Dew point: 22 celsius
  • Pressure: 1018 millibars
  • Remarks: None


Useful to know...

TQPF TAF

Clayton J Lloyd International Airport

TAF TQPF 051700Z 0518/0618 07016KT 9999 SCT020 PROB30 TEMPO 0600/0610 07016G26KT SHRA
Observation time: 16:20 hr. ago
Need help? Read our tutorial on how to read TAFs or read the parsed version below.

Parsed version of TAF for Clayton J Lloyd International Airport (TQPF)

  • From 05 December at 18:00 UTC, to day 06 of the month at 18:00 UTC
  • Clouds: Scattered at 610 meters
  • Visibility: Greater than 10 km
  • Wind: 70 degrees at 16
  • Expected to arise temporarily, from 06 December at 00:00 UTC, to day 06 of the month at 10:00 UTC
    Probability of 30%
  • Wind: 70 degrees at 16
  • Other: Showers of rain